Time;durP1;ratioP1;P1;durP2;ratioP2;P2;SDS_P1;SDS_P2;PMS_P1;PMS_P2;Temp;Humidity;BMP_temperature;BMP_pressure;BME280_temperature;BME280_humidity;BME280_pressure;Samples;Min_cycle;Max_cycle;Signal;HPM_P1;HPM_P2
2021/04/26 00:00:23;;;;;;;8.25;1.67;;;;;;;10.02;78.91;100958.91;1830489;77;21701;-58
2021/04/26 00:02:50;;;;;;;2.45;1.37;;;;;;;10.03;79.44;100953.97;1830557;78;21482;-58
2021/04/26 00:05:19;;;;;;;5.50;2.02;;;;;;;10.02;79.62;100951.73;1830464;77;20932;-58
2021/04/26 00:07:47;;;;;;;3.65;2.08;;;;;;;10.03;80.35;100957.51;1830405;77;21402;-57
2021/04/26 00:10:16;;;;;;;5.03;2.40;;;;;;;10.01;80.70;100954.00;1830445;78;21129;-58
2021/04/26 00:12:44;;;;;;;4.03;2.02;;;;;;;9.99;81.43;100946.47;1830398;78;21186;-57
2021/04/26 00:15:22;;;;;;;4.92;1.90;;;;;;;9.99;81.70;100945.61;1830454;78;21189;-58
2021/04/26 00:17:50;;;;;;;4.70;2.25;;;;;;;9.98;82.25;100939.36;1830457;77;21066;-58
2021/04/26 00:20:20;;;;;;;4.65;2.12;;;;;;;9.97;82.57;100938.95;1830387;78;21126;-57
2021/04/26 00:22:48;;;;;;;4.33;2.30;;;;;;;9.98;82.78;100938.50;1830441;78;21110;-58
2021/04/26 00:25:15;;;;;;;5.55;1.70;;;;;;;9.97;83.09;100941.63;1830432;78;22838;-57
2021/04/26 00:27:43;;;;;;;4.15;1.92;;;;;;;9.95;83.16;100932.77;1830357;77;21047;-58
2021/04/26 00:30:16;;;;;;;7.28;2.10;;;;;;;9.94;83.64;100933.69;1830371;77;21039;-57
2021/04/26 00:32:44;;;;;;;5.50;2.52;;;;;;;9.91;83.89;100936.91;1830484;78;21201;-57
2021/04/26 00:35:14;;;;;;;4.03;2.40;;;;;;;9.91;84.00;100936.46;1825204;78;21094;-59
2021/04/26 00:37:42;;;;;;;3.50;2.02;;;;;;;9.89;84.30;100926.25;1824339;78;21177;-57
2021/04/26 00:40:11;;;;;;;8.30;1.98;;;;;;;9.87;84.46;100930.30;1824186;78;21149;-58
2021/04/26 00:42:38;;;;;;;5.30;2.27;;;;;;;9.85;84.70;100933.48;1824397;78;21550;-58
2021/04/26 00:45:12;;;;;;;3.70;1.90;;;;;;;9.81;85.03;100928.26;1824320;78;21149;-57
2021/04/26 00:47:40;;;;;;;5.22;2.30;;;;;;;9.80;85.29;100922.48;1824302;78;20924;-58
2021/04/26 00:50:12;;;;;;;5.67;2.30;;;;;;;9.79;85.58;100920.73;1824287;78;21176;-57
2021/04/26 00:52:40;;;;;;;6.42;2.20;;;;;;;9.77;86.09;100918.56;1824208;78;21154;-57
2021/04/26 00:55:10;;;;;;;5.97;2.17;;;;;;;9.74;86.52;100915.05;1824448;78;21177;-58
2021/04/26 00:57:37;;;;;;;5.28;1.90;;;;;;;9.69;87.07;100917.00;1834092;78;21563;-58
2021/04/26 01:00:06;;;;;;;7.50;2.45;;;;;;;9.64;87.31;100924.29;1840347;78;21127;-58
2021/04/26 01:02:34;;;;;;;6.33;2.30;;;;;;;9.60;87.73;100922.59;1840283;78;21337;-58
2021/04/26 01:05:08;;;;;;;4.12;2.50;;;;;;;9.58;88.17;100919.98;1840292;78;20934;-58
2021/04/26 01:07:40;;;;;;;7.97;2.20;;;;;;;9.56;88.31;100919.14;1840443;78;21117;-57
2021/04/26 01:10:10;;;;;;;8.80;2.70;;;;;;;9.55;88.33;100917.39;1840188;78;21140;-57
2021/04/26 01:13:12;;;;;;;5.05;2.10;;;;;;;9.54;88.38;100908.95;1840447;78;21183;-58
2021/04/26 01:16:12;;;;;;;5.47;2.50;;;;;;;9.54;88.41;100907.61;1839908;78;21378;-57
2021/04/26 01:18:52;;;;;;;9.25;2.75;;;;;;;9.54;88.40;100916.08;1840270;78;21045;-57
2021/04/26 01:21:45;;;;;;;5.67;2.47;;;;;;;9.50;88.23;100909.06;1815372;78;21041;-57
2021/04/26 01:24:47;;;;;;;9.20;2.20;;;;;;;9.49;88.21;100911.33;1840288;78;21115;-58
2021/04/26 01:27:37;;;;;;;6.97;2.30;;;;;;;9.48;88.06;100902.88;1840408;78;21186;-57
2021/04/26 01:30:20;;;;;;;10.30;3.08;;;;;;;9.48;87.95;100904.22;1840280;78;21324;-57
2021/04/26 01:32:55;;;;;;;5.40;2.50;;;;;;;9.48;87.84;100896.19;1833412;78;21081;-57
2021/04/26 01:35:24;;;;;;;7.80;1.98;;;;;;;9.49;87.66;100897.94;1840223;77;21139;-57
2021/04/26 01:37:57;;;;;;;9.68;2.00;;;;;;;9.46;87.47;100897.11;1840203;78;21140;-57
2021/04/26 01:40:25;;;;;;;3.67;2.20;;;;;;;9.49;87.41;100895.27;1840334;78;21131;-58
2021/04/26 01:42:58;;;;;;;5.75;2.20;;;;;;;9.50;87.32;100895.68;1810501;78;21338;-57
2021/04/26 01:45:26;;;;;;;5.40;2.60;;;;;;;9.51;87.20;100893.42;1840281;78;20938;-58
2021/04/26 01:47:56;;;;;;;9.05;2.40;;;;;;;9.52;87.05;100884.03;1840299;78;21564;-57
2021/04/26 01:50:26;;;;;;;5.37;2.55;;;;;;;9.52;87.00;100878.67;1840282;78;21211;-57
2021/04/26 01:52:54;;;;;;;3.25;2.10;;;;;;;9.52;86.99;100876.44;1840418;78;21604;-57
2021/04/26 01:55:21;;;;;;;7.25;2.55;;;;;;;9.51;86.99;100870.67;1810292;78;21169;-58
2021/04/26 01:57:50;;;;;;;7.90;2.42;;;;;;;9.51;86.95;100866.66;1831277;78;21122;-57
2021/04/26 02:00:23;;;;;;;5.12;2.62;;;;;;;9.51;86.75;100860.86;1827346;78;21043;-58
2021/04/26 02:03:01;;;;;;;6.05;2.35;;;;;;;9.50;86.52;100863.09;1827513;78;21480;-57
2021/04/26 02:05:31;;;;;;;5.08;2.17;;;;;;;9.48;86.20;100854.23;1827213;78;21130;-57
2021/04/26 02:08:01;;;;;;;6.83;2.72;;;;;;;9.48;86.05;100856.05;1826664;78;21186;-57
2021/04/26 02:10:33;;;;;;;8.70;2.40;;;;;;;9.48;85.81;100856.05;1826323;78;21068;-57
2021/04/26 02:13:03;;;;;;;6.97;3.30;;;;;;;9.45;85.58;100852.54;1827457;78;21051;-57
2021/04/26 02:15:32;;;;;;;3.55;1.87;;;;;;;9.41;85.37;100844.63;1827410;78;21058;-58
2021/04/26 02:18:00;;;;;;;7.15;2.08;;;;;;;9.38;85.36;100842.91;1827493;78;21483;-57
2021/04/26 02:20:29;;;;;;;6.97;2.40;;;;;;;9.37;85.47;100831.79;1827459;78;21354;-57
2021/04/26 02:22:57;;;;;;;7.85;3.05;;;;;;;9.34;85.77;100839.05;1827169;78;37767;-58
2021/04/26 02:25:25;;;;;;;5.10;2.47;;;;;;;9.31;86.13;100838.66;1827515;78;21162;-57
2021/04/26 02:27:53;;;;;;;8.10;3.27;;;;;;;9.25;86.73;100837.03;1827337;78;21192;-57
2021/04/26 02:30:23;;;;;;;7.17;2.10;;;;;;;9.21;87.23;100850.56;1827461;78;21091;-57
2021/04/26 02:33:15;;;;;;;7.12;2.02;;;;;;;9.15;87.75;100853.80;1827358;78;21371;-57
2021/04/26 02:36:16;;;;;;;4.90;2.42;;;;;;;9.15;88.18;100852.45;1819822;78;21074;-57
2021/04/26 02:38:53;;;;;;;5.17;2.20;;;;;;;9.10;88.53;100851.72;1830675;78;21174;-57
2021/04/26 02:41:29;;;;;;;11.28;4.53;;;;;;;9.09;88.59;100855.31;1830542;78;21056;-57
2021/04/26 02:44:01;;;;;;;8.03;2.50;;;;;;;9.10;88.61;100846.84;1830618;77;21185;-57
2021/04/26 02:46:32;;;;;;;6.03;2.35;;;;;;;9.15;88.50;100862.30;1830666;78;22090;-58
2021/04/26 02:49:02;;;;;;;6.12;2.47;;;;;;;9.16;88.11;100864.05;1830529;77;21066;-58
2021/04/26 02:51:33;;;;;;;4.65;2.00;;;;;;;9.16;87.83;100872.94;1830558;77;21046;-58
2021/04/26 02:54:04;;;;;;;6.83;2.02;;;;;;;9.17;87.42;100871.16;1816748;78;21054;-58
2021/04/26 02:56:38;;;;;;;4.97;2.25;;;;;;;9.19;87.15;100877.81;1831036;77;21099;-58
2021/04/26 02:59:08;;;;;;;7.00;2.75;;;;;;;9.18;86.19;100884.95;1833124;78;21526;-59
2021/04/26 03:01:38;;;;;;;6.33;2.55;;;;;;;9.17;84.57;100877.40;1833158;77;21146;-58
2021/04/26 03:04:30;;;;;;;3.92;1.98;;;;;;;9.21;81.08;100878.17;1873199;76;26464;-58
2021/04/26 03:07:02;;;;;;;4.28;1.90;;;;;;;9.13;77.41;100882.86;1840836;78;20914;-57
2021/04/26 03:09:32;;;;;;;5.72;2.12;;;;;;;9.11;76.17;100887.38;1839763;78;21354;-60
2021/04/26 03:12:00;;;;;;;5.95;2.00;;;;;;;9.11;73.30;100884.70;1841070;78;20993;-58
2021/04/26 03:14:29;;;;;;;4.25;1.95;;;;;;;9.14;70.09;100877.45;1839030;78;20930;-58
2021/04/26 03:16:57;;;;;;;4.05;2.00;;;;;;;9.18;69.00;100876.92;1841021;78;20973;-58
2021/04/26 03:19:25;;;;;;;4.87;2.35;;;;;;;9.21;68.89;100878.65;1784102;78;20989;-58
2021/04/26 03:21:54;;;;;;;4.03;2.12;;;;;;;9.20;68.44;100876.89;1841069;78;21683;-58
2021/04/26 03:24:22;;;;;;;4.75;1.90;;;;;;;9.18;68.28;100856.86;1841013;78;20929;-57
2021/04/26 03:26:52;;;;;;;4.00;2.17;;;;;;;9.18;68.33;100867.56;1840951;78;20918;-58
2021/04/26 03:29:21;;;;;;;4.60;2.05;;;;;;;9.16;69.42;100862.23;1784732;78;21036;-58
2021/04/26 03:31:50;;;;;;;5.37;2.35;;;;;;;9.15;70.46;100869.84;1841019;78;20922;-58
2021/04/26 03:34:19;;;;;;;5.58;2.42;;;;;;;9.16;72.04;100884.11;1841070;78;21354;-58
2021/04/26 03:36:47;;;;;;;4.75;2.15;;;;;;;9.17;72.67;100895.23;1840901;78;21056;-58
2021/04/26 03:39:15;;;;;;;3.55;2.08;;;;;;;9.21;72.45;100898.23;1810907;78;20997;-58
2021/04/26 03:41:44;;;;;;;5.62;2.22;;;;;;;9.25;71.47;100905.73;1810879;78;21603;-58
2021/04/26 03:44:15;;;;;;;7.37;2.67;;;;;;;9.29;70.89;100909.62;1841066;78;21567;-58
2021/04/26 03:46:58;;;;;;;4.45;2.15;;;;;;;9.32;71.40;100908.65;1814039;78;21348;-57
2021/04/26 03:49:46;;;;;;;8.25;2.40;;;;;;;9.31;72.26;100918.94;1734975;81;21252;-59
2021/04/26 03:52:23;;;;;;;3.20;2.22;;;;;;;9.29;73.65;100911.41;1850703;77;26584;-58
2021/04/26 03:55:12;;;;;;;7.80;2.37;;;;;;;9.20;74.02;100906.32;1822695;78;21099;-58
2021/04/26 03:57:39;;;;;;;6.10;2.40;;;;;;;9.15;73.02;100905.95;1822670;78;21360;-58
2021/04/26 04:00:10;;;;;;;5.03;2.60;;;;;;;9.14;73.02;100888.16;1822680;78;20939;-59
2021/04/26 04:02:39;;;;;;;4.67;2.50;;;;;;;9.12;72.71;100899.36;1820556;78;21560;-59
2021/04/26 04:05:10;;;;;;;4.67;2.00;;;;;;;9.11;72.86;100880.69;1822856;78;21592;-58
2021/04/26 04:07:40;;;;;;;6.58;2.15;;;;;;;9.09;72.93;100880.72;1777979;78;21116;-59
2021/04/26 04:10:16;;;;;;;6.60;2.00;;;;;;;9.10;72.87;100869.58;1787004;78;21549;-58
2021/04/26 04:12:51;;;;;;;7.00;2.47;;;;;;;9.08;72.31;100874.95;1810366;78;20923;-59
2021/04/26 04:15:19;;;;;;;5.28;2.37;;;;;;;9.10;72.40;100869.09;1822831;78;22233;-58
2021/04/26 04:17:46;;;;;;;4.47;2.40;;;;;;;9.10;71.89;100860.22;1822768;78;21053;-60
2021/04/26 04:20:15;;;;;;;3.95;2.08;;;;;;;9.13;71.05;100869.48;1822643;78;21148;-58
2021/04/26 04:22:44;;;;;;;5.47;2.45;;;;;;;9.15;70.83;100864.50;1822507;78;21465;-59
2021/04/26 04:25:14;;;;;;;5.75;2.20;;;;;;;9.17;70.47;100861.35;1822593;78;21060;-58
2021/04/26 04:27:44;;;;;;;6.53;2.52;;;;;;;9.22;70.19;100865.69;1822645;78;20919;-58
2021/04/26 04:30:13;;;;;;;4.55;2.15;;;;;;;9.27;70.28;100867.77;1822538;78;21065;-59
2021/04/26 04:32:45;;;;;;;6.35;2.52;;;;;;;9.34;70.29;100868.00;1781104;78;21038;-58
2021/04/26 04:35:27;;;;;;;7.35;2.45;;;;;;;9.40;70.73;100867.86;1817619;78;21372;-58
2021/04/26 04:38:13;;;;;;;6.72;2.42;;;;;;;9.51;71.56;100866.66;1822720;78;20942;-58
2021/04/26 04:40:59;;;;;;;5.78;2.50;;;;;;;9.58;71.93;100876.25;1822565;78;20973;-59
2021/04/26 04:43:29;;;;;;;3.60;2.35;;;;;;;9.65;72.59;100884.55;1822341;78;20986;-59
2021/04/26 04:45:57;;;;;;;8.95;2.60;;;;;;;9.68;72.82;100890.25;1822680;78;21121;-57
2021/04/26 04:48:33;;;;;;;7.08;2.85;;;;;;;9.71;72.95;100876.33;1820410;78;21346;-58
2021/04/26 04:51:01;;;;;;;5.75;2.20;;;;;;;9.80;72.58;100879.64;1819427;78;21211;-57
2021/04/26 04:53:29;;;;;;;4.60;2.33;;;;;;;9.87;71.97;100871.86;1812568;79;21014;-57
2021/04/26 04:55:57;;;;;;;4.03;2.35;;;;;;;9.95;71.30;100875.66;1812622;79;20943;-58
2021/04/26 04:58:26;;;;;;;9.58;2.52;;;;;;;10.01;70.73;100868.76;1768063;79;21156;-58
2021/04/26 05:00:55;;;;;;;4.47;2.50;;;;;;;10.08;69.34;100872.13;1767156;81;21330;-58
2021/04/26 05:03:42;;;;;;;5.92;2.92;;;;;;;10.14;69.02;100872.80;1766590;81;20994;-60
2021/04/26 05:06:28;;;;;;;5.60;2.52;;;;;;;10.22;68.34;100876.58;1766531;81;21156;-58
2021/04/26 05:09:14;;;;;;;4.05;2.17;;;;;;;10.26;68.32;100875.55;1766647;81;21156;-58
2021/04/26 05:11:46;;;;;;;3.70;2.30;;;;;;;10.32;68.74;100883.42;1766576;80;21130;-58
2021/04/26 05:14:34;;;;;;;3.92;2.30;;;;;;;10.37;68.87;100885.06;1766574;81;21383;-57
2021/04/26 05:17:02;;;;;;;6.47;2.58;;;;;;;10.47;69.67;100890.56;1766559;81;21104;-58
2021/04/26 05:19:30;;;;;;;5.33;2.35;;;;;;;10.60;70.48;100885.23;1766548;80;21113;-58
2021/04/26 05:21:57;;;;;;;4.60;2.60;;;;;;;10.80;70.62;100881.45;1766563;81;21110;-57
2021/04/26 05:24:25;;;;;;;4.60;2.77;;;;;;;10.96;70.42;100881.83;1766528;80;21054;-58
2021/04/26 05:26:57;;;;;;;5.62;2.67;;;;;;;11.06;69.59;100879.23;1766557;81;21201;-58
2021/04/26 05:29:25;;;;;;;4.67;2.67;;;;;;;11.15;69.50;100881.57;1766502;81;21065;-58
2021/04/26 05:31:55;;;;;;;4.97;2.50;;;;;;;11.38;68.91;100885.72;1766563;81;20935;-58
2021/04/26 05:34:23;;;;;;;6.00;2.62;;;;;;;11.64;68.25;100875.38;1766527;81;20929;-57
2021/04/26 05:36:51;;;;;;;5.35;2.70;;;;;;;11.96;67.45;100875.94;1766681;81;21707;-58
2021/04/26 05:39:19;;;;;;;4.60;2.70;;;;;;;12.24;66.94;100876.22;1771195;79;21399;-58
2021/04/26 05:41:47;;;;;;;6.58;3.08;;;;;;;12.38;66.61;100867.63;1808760;79;21054;-58
2021/04/26 05:44:15;;;;;;;5.33;3.00;;;;;;;12.41;65.66;100877.36;1811496;79;21129;-58
2021/04/26 05:47:01;;;;;;;5.85;3.15;;;;;;;12.35;64.16;100878.96;1810594;79;21188;-59
2021/04/26 05:49:29;;;;;;;6.85;2.95;;;;;;;12.23;63.82;100873.61;1811466;79;21105;-60
2021/04/26 05:51:56;;;;;;;6.33;2.92;;;;;;;12.19;63.34;100876.88;1816531;78;21214;-61
2021/04/26 05:54:26;;;;;;;5.33;2.47;;;;;;;12.12;63.83;100873.55;1821158;78;21129;-58
2021/04/26 05:56:54;;;;;;;7.95;3.42;;;;;;;12.03;63.60;100873.45;1811526;78;21178;-58
2021/04/26 05:59:22;;;;;;;5.80;3.17;;;;;;;11.89;63.61;100863.69;1797135;78;21171;-59
2021/04/26 06:01:50;;;;;;;4.85;3.42;;;;;;;11.71;63.25;100862.11;1759127;80;21128;-60
2021/04/26 06:04:18;;;;;;;9.65;3.70;;;;;;;11.57;63.32;100865.77;1789565;80;21544;-59
2021/04/26 06:06:46;;;;;;;7.90;3.50;;;;;;;11.44;64.04;100874.30;1789384;80;21148;-58
2021/04/26 06:09:15;;;;;;;8.50;3.35;;;;;;;11.29;64.62;100874.39;1789284;80;21080;-58
2021/04/26 06:11:45;;;;;;;6.20;3.33;;;;;;;11.17;65.31;100874.83;1789505;80;21076;-60
2021/04/26 06:14:14;;;;;;;5.95;3.20;;;;;;;11.00;65.63;100870.06;1759336;80;21053;-59
2021/04/26 06:16:41;;;;;;;5.08;3.05;;;;;;;10.92;65.68;100872.11;1789703;80;21191;-58
2021/04/26 06:19:11;;;;;;;10.23;4.00;;;;;;;10.85;65.82;100873.67;1789505;80;21076;-60
2021/04/26 06:21:42;;;;;;;10.23;3.83;;;;;;;10.83;66.83;100871.51;1792638;77;21045;-62
2021/04/26 06:24:12;;;;;;;7.12;3.35;;;;;;;10.82;67.59;100866.19;1765053;81;21574;-58
2021/04/26 06:26:39;;;;;;;6.87;3.83;;;;;;;10.76;68.60;100865.95;1813110;78;21103;-58
2021/04/26 06:29:08;;;;;;;8.38;3.80;;;;;;;10.72;69.95;100864.28;1819023;78;21176;-52
2021/04/26 06:31:35;;;;;;;6.53;3.70;;;;;;;10.67;71.04;100863.56;1812991;77;21083;-52
2021/04/26 06:34:04;;;;;;;6.15;3.58;;;;;;;10.63;71.79;100865.94;1764054;80;21122;-52
2021/04/26 06:36:32;;;;;;;7.55;3.70;;;;;;;10.62;71.92;100862.40;1827949;78;21055;-52
2021/04/26 06:39:00;;;;;;;6.58;3.42;;;;;;;10.63;71.57;100877.55;1742896;81;20999;-58
2021/04/26 06:41:28;;;;;;;7.33;3.98;;;;;;;10.63;71.22;100873.53;1771033;81;22770;-54
2021/04/26 06:43:56;;;;;;;8.20;3.65;;;;;;;10.65;71.42;100871.68;1770976;81;21200;-52
2021/04/26 06:46:23;;;;;;;5.97;3.83;;;;;;;10.71;71.03;100872.80;1821722;78;21069;-58
2021/04/26 06:48:51;;;;;;;8.00;3.70;;;;;;;10.84;70.95;100874.60;1821963;78;21461;-58
2021/04/26 06:51:19;;;;;;;10.30;3.47;;;;;;;11.03;71.04;100878.86;1815630;77;21140;-60
2021/04/26 06:53:46;;;;;;;7.53;3.87;;;;;;;11.22;70.45;100883.58;1768033;80;21590;-58
2021/04/26 06:56:15;;;;;;;9.75;4.17;;;;;;;11.30;69.63;100883.31;1814649;78;21118;-58
2021/04/26 06:58:43;;;;;;;9.00;4.28;;;;;;;11.37;69.42;100885.31;1816199;78;21055;-52
2021/04/26 07:01:10;;;;;;;8.60;4.60;;;;;;;11.49;69.26;100886.67;1766841;81;21145;-59
2021/04/26 07:03:40;;;;;;;10.30;5.12;;;;;;;11.57;69.02;100891.28;1797769;79;21600;-53
2021/04/26 07:06:51;;;;;;;8.18;4.97;;;;;;;11.77;68.30;100891.01;1873224;76;28106;-53
2021/04/26 07:09:22;;;;;;;9.83;4.37;;;;;;;11.84;68.18;100892.55;1841115;78;21009;-58
2021/04/26 07:11:50;;;;;;;9.28;5.33;;;;;;;11.90;67.08;100890.48;1841030;78;22244;-59
2021/04/26 07:14:17;;;;;;;10.43;5.42;;;;;;;11.98;66.81;100886.16;1840916;78;20934;-52
2021/04/26 07:16:46;;;;;;;12.98;5.35;;;;;;;12.04;66.06;100883.25;1830157;77;20999;-52
2021/04/26 07:19:15;;;;;;;9.63;5.42;;;;;;;12.09;66.28;100894.32;1810098;78;21030;-59
2021/04/26 07:21:43;;;;;;;8.45;5.50;;;;;;;12.15;66.78;100894.07;1828761;78;20999;-59
2021/04/26 07:24:11;;;;;;;13.68;6.17;;;;;;;12.29;66.55;100882.77;1828829;78;21344;-58
2021/04/26 07:26:39;;;;;;;12.95;5.80;;;;;;;12.46;66.24;100891.03;1827189;78;20919;-59
2021/04/26 07:29:06;;;;;;;10.43;5.58;;;;;;;12.60;65.71;100889.11;1807869;78;21075;-59
2021/04/26 07:31:35;;;;;;;9.20;5.70;;;;;;;12.75;65.10;100886.25;1807763;79;21091;-59
2021/04/26 07:34:04;;;;;;;9.55;5.65;;;;;;;12.89;65.01;100887.49;1807964;79;21569;-58
2021/04/26 07:36:31;;;;;;;9.80;5.75;;;;;;;13.06;64.85;100885.41;1806851;78;21187;-57
2021/04/26 07:38:59;;;;;;;11.25;5.85;;;;;;;13.30;64.55;100895.59;1807732;79;21096;-57
2021/04/26 07:41:27;;;;;;;11.43;6.10;;;;;;;13.57;64.11;100894.44;1777798;79;21540;-58
2021/04/26 07:43:55;;;;;;;9.60;5.70;;;;;;;13.88;63.30;100895.74;1732473;79;21459;-58
2021/04/26 07:46:24;;;;;;;11.70;5.83;;;;;;;14.18;62.52;100889.84;1807851;79;21064;-59
2021/04/26 07:48:53;;;;;;;10.65;6.08;;;;;;;14.40;62.05;100891.03;1807700;79;21411;-58
2021/04/26 07:51:25;;;;;;;9.95;6.30;;;;;;;14.52;61.18;100900.34;1807774;79;20978;-58
2021/04/26 07:53:56;;;;;;;9.75;6.53;;;;;;;14.61;61.22;100902.58;1807974;76;21020;-57
2021/04/26 07:56:25;;;;;;;9.15;6.37;;;;;;;14.78;60.53;100904.95;1819343;78;21087;-57
2021/04/26 07:58:53;;;;;;;9.93;6.83;;;;;;;14.88;59.56;100898.12;1809620;78;21129;-57
2021/04/26 08:01:21;;;;;;;11.25;7.60;;;;;;;14.93;59.59;100903.78;1831425;78;21273;-58
2021/04/26 08:03:50;;;;;;;12.23;6.90;;;;;;;14.99;58.89;100902.11;1840811;78;21056;-58
2021/04/26 08:06:19;;;;;;;10.95;6.95;;;;;;;14.97;59.00;100904.87;1835461;77;21543;-58
2021/04/26 08:08:48;;;;;;;9.20;6.40;;;;;;;14.98;58.76;100905.77;1826473;77;21158;-58
2021/04/26 08:11:17;;;;;;;9.30;5.87;;;;;;;14.92;58.88;100899.30;1758960;79;21143;-58
2021/04/26 08:13:50;;;;;;;11.12;6.45;;;;;;;14.83;58.49;100906.94;1768180;79;21476;-56
2021/04/26 08:16:19;;;;;;;8.70;6.67;;;;;;;14.83;58.47;100913.68;1799687;79;20989;-58
2021/04/26 08:18:47;;;;;;;9.08;6.90;;;;;;;14.78;57.33;100916.20;1829216;78;20941;-58
2021/04/26 08:21:15;;;;;;;12.90;6.87;;;;;;;14.67;58.04;100912.66;1831959;77;21128;-57
2021/04/26 08:23:45;;;;;;;11.45;6.85;;;;;;;14.66;58.70;100910.91;1832020;78;21171;-57
2021/04/26 08:26:13;;;;;;;12.00;6.85;;;;;;;14.70;58.91;100912.05;1831903;78;21524;-58
2021/04/26 08:28:40;;;;;;;10.78;6.45;;;;;;;14.73;58.57;100913.27;1831970;78;21056;-57
2021/04/26 08:31:08;;;;;;;10.35;6.92;;;;;;;14.75;58.08;100915.91;1831921;78;21048;-58
2021/04/26 08:33:37;;;;;;;13.45;6.47;;;;;;;14.74;57.76;100929.00;1831972;78;20969;-58
2021/04/26 08:36:06;;;;;;;10.48;6.83;;;;;;;14.72;58.39;100922.31;1820768;78;21159;-58
2021/04/26 08:38:33;;;;;;;8.93;5.83;;;;;;;14.84;58.52;100924.87;1799256;79;21225;-58
2021/04/26 08:41:01;;;;;;;8.00;5.00;;;;;;;14.97;57.11;100926.97;1799227;79;21123;-58
2021/04/26 08:43:29;;;;;;;8.20;4.87;;;;;;;15.08;55.62;100924.58;1799275;79;20980;-58
2021/04/26 08:46:01;;;;;;;5.55;4.30;;;;;;;15.09;55.32;100923.62;1764212;81;21104;-58
2021/04/26 08:48:29;;;;;;;8.43;4.47;;;;;;;15.02;55.79;100927.59;1739363;81;21199;-58
2021/04/26 08:50:57;;;;;;;8.63;4.70;;;;;;;15.00;54.45;100938.95;1757682;81;21316;-58
2021/04/26 08:53:25;;;;;;;8.63;4.72;;;;;;;15.00;54.08;100940.30;1752086;81;21108;-58
2021/04/26 08:55:53;;;;;;;6.62;5.00;;;;;;;14.97;54.56;100946.72;1778574;80;20987;-58
2021/04/26 08:58:21;;;;;;;6.30;4.58;;;;;;;14.97;54.19;100948.56;1758523;80;21061;-58
2021/04/26 09:00:49;;;;;;;5.80;4.08;;;;;;;14.87;54.38;100940.05;1764301;81;21045;-58
2021/04/26 09:03:17;;;;;;;6.08;3.67;;;;;;;14.98;53.60;100944.91;1747740;82;22363;-59
2021/04/26 09:05:46;;;;;;;6.97;5.00;;;;;;;15.11;52.34;100952.77;1762303;80;21180;-57
2021/04/26 09:08:23;;;;;;;9.98;6.00;;;;;;;15.01;52.59;100952.36;1758462;81;21025;-59
2021/04/26 09:10:53;;;;;;;10.63;6.15;;;;;;;14.85;54.05;100951.41;1750010;82;21046;-57
2021/04/26 09:13:37;;;;;;;8.58;5.75;;;;;;;14.76;54.16;100940.59;1758554;80;21488;-57
2021/04/26 09:16:23;;;;;;;10.40;6.85;;;;;;;14.74;54.41;100942.49;1750068;82;21349;-59
2021/04/26 09:18:59;;;;;;;9.00;6.10;;;;;;;14.67;54.13;100933.78;1750103;82;21106;-58
2021/04/26 09:21:44;;;;;;;6.00;4.85;;;;;;;14.73;53.65;100947.49;1758431;81;21065;-58
2021/04/26 09:24:29;;;;;;;9.13;4.97;;;;;;;14.67;52.62;100952.67;1755428;81;21071;-58
2021/04/26 09:27:09;;;;;;;8.90;4.43;;;;;;;14.57;52.07;100951.36;1758007;81;21164;-58
2021/04/26 09:29:37;;;;;;;9.90;4.33;;;;;;;14.60;51.35;100945.34;1750075;82;21178;-58
2021/04/26 09:32:21;;;;;;;8.88;4.70;;;;;;;14.74;51.16;100951.45;1758427;81;20997;-58
2021/04/26 09:34:53;;;;;;;7.95;4.10;;;;;;;14.77;51.28;100950.44;1715584;81;21499;-58
2021/04/26 09:37:28;;;;;;;7.20;4.87;;;;;;;14.74;51.28;100964.94;1755915;79;21148;-60
2021/04/26 09:40:13;;;;;;;8.48;4.97;;;;;;;14.61;52.12;100965.98;1765062;79;21049;-59
2021/04/26 09:42:52;;;;;;;8.55;4.40;;;;;;;14.36;52.86;100960.03;1760113;80;21375;-58
2021/04/26 09:45:39;;;;;;;7.87;4.67;;;;;;;14.18;54.30;100962.64;1761690;79;21216;-58
2021/04/26 09:48:12;;;;;;;8.80;4.47;;;;;;;14.15;54.94;100954.70;1760898;79;21074;-58
2021/04/26 09:50:58;;;;;;;7.60;3.90;;;;;;;14.15;54.60;100961.44;1764541;80;21156;-58
2021/04/26 09:53:29;;;;;;;7.97;4.22;;;;;;;14.08;54.21;100957.29;1766037;80;21463;-58
2021/04/26 09:55:58;;;;;;;8.78;3.92;;;;;;;14.01;54.50;100966.98;1762515;80;21380;-59
2021/04/26 09:58:26;;;;;;;6.42;3.27;;;;;;;14.02;53.78;100970.08;1722923;80;21415;-58
2021/04/26 10:00:54;;;;;;;5.22;2.98;;;;;;;13.96;54.14;100973.55;1754738;80;21129;-58
2021/04/26 10:03:22;;;;;;;5.10;2.30;;;;;;;13.88;53.44;100973.90;1770854;80;21153;-58
2021/04/26 10:05:50;;;;;;;4.35;2.00;;;;;;;13.78;53.24;100968.50;1761174;80;21061;-57
2021/04/26 10:08:19;;;;;;;9.40;3.05;;;;;;;13.61;53.85;100979.59;1766431;81;21185;-57
2021/04/26 10:10:47;;;;;;;4.22;2.70;;;;;;;13.48;55.51;100995.88;1785808;79;21061;-58
2021/04/26 10:13:19;;;;;;;3.42;2.10;;;;;;;13.14;56.88;101003.05;1774934;79;21133;-58
2021/04/26 10:15:57;;;;;;;6.67;2.55;;;;;;;12.93;57.65;100993.17;1761566;79;20932;-58
2021/04/26 10:18:37;;;;;;;5.28;1.98;;;;;;;12.81;58.02;101007.55;1780049;79;21121;-58
2021/04/26 10:21:24;;;;;;;2.40;1.40;;;;;;;12.72;58.38;101006.59;1795993;79;21352;-58
2021/04/26 10:23:53;;;;;;;2.25;1.07;;;;;;;12.61;58.91;101009.22;1779409;79;21185;-59
2021/04/26 10:26:48;;;;;;;2.37;1.20;;;;;;;12.55;58.64;101004.09;1787653;79;21189;-59
2021/04/26 10:29:34;;;;;;;1.63;1.30;;;;;;;12.55;59.19;101001.40;1749779;81;21050;-59
2021/04/26 10:32:09;;;;;;;1.35;1.20;;;;;;;12.59;58.85;101001.67;1782550;79;21157;-58
2021/04/26 10:34:51;;;;;;;2.05;1.27;;;;;;;12.59;58.53;101009.75;1780695;79;22051;-58
2021/04/26 10:37:25;;;;;;;2.67;1.60;;;;;;;12.56;58.96;101005.84;1776103;79;21203;-57
2021/04/26 10:40:14;;;;;;;13.10;7.78;;;;;;;12.57;60.09;101006.24;1714911;79;21204;-58
2021/04/26 10:42:51;;;;;;;3.77;2.10;;;;;;;12.58;59.56;101010.69;1798279;79;21068;-57
2021/04/26 10:45:27;;;;;;;0.70;0.70;;;;;;;12.58;60.01;101028.17;1740266;81;21126;-58
2021/04/26 10:48:09;;;;;;;3.20;0.90;;;;;;;12.49;59.23;101036.61;1748026;81;21287;-58
2021/04/26 10:50:42;;;;;;;1.05;0.60;;;;;;;12.42;59.53;101027.00;1775768;80;21537;-58
2021/04/26 10:53:14;;;;;;;2.75;1.00;;;;;;;12.51;59.04;101019.05;1790369;80;21529;-58
2021/04/26 10:55:51;;;;;;;1.90;1.30;;;;;;;12.62;59.24;101042.39;1769408;80;21556;-58
2021/04/26 10:58:29;;;;;;;5.90;0.98;;;;;;;12.67;58.07;101026.05;1765360;80;21194;-58
2021/04/26 11:00:57;;;;;;;2.60;1.37;;;;;;;12.73;58.41;101009.69;1789063;80;22803;-58
2021/04/26 11:03:31;;;;;;;2.80;1.20;;;;;;;12.77;57.27;101043.59;1789256;80;21625;-58
2021/04/26 11:06:10;;;;;;;2.15;1.42;;;;;;;12.67;57.58;101052.48;1788890;80;21065;-59
2021/04/26 11:11:30;;;;;;;3.33;1.00;;;;;;;12.50;58.38;101037.02;1782426;80;20986;-58
2021/04/26 11:13:58;;;;;;;3.05;1.85;;;;;;;12.41;58.19;101049.45;1786617;80;21552;-58
2021/04/26 11:16:33;;;;;;;1.77;0.80;;;;;;;12.34;59.00;101056.86;1786349;80;20998;-58
2021/04/26 11:19:08;;;;;;;3.65;1.42;;;;;;;12.30;58.32;101037.30;1770359;80;21063;-58
2021/04/26 11:21:49;;;;;;;10.05;2.90;;;;;;;12.26;59.28;101047.73;1790413;80;21093;-59
2021/04/26 11:24:30;;;;;;;18.90;5.15;;;;;;;12.21;58.83;101044.83;1790336;80;21053;-59
2021/04/26 11:27:19;;;;;;;6.17;1.80;;;;;;;12.18;59.12;101054.77;1790399;80;21325;-58
2021/04/26 11:29:53;;;;;;;5.42;2.30;;;;;;;12.08;58.30;101050.64;1770496;81;21055;-58
2021/04/26 11:32:24;;;;;;;5.00;3.30;;;;;;;11.88;58.55;101067.47;1787985;80;21077;-60
2021/04/26 11:35:00;;;;;;;5.12;2.17;;;;;;;11.66;58.71;101049.41;1783366;80;21190;-58
2021/04/26 11:37:37;;;;;;;9.58;5.75;;;;;;;11.58;59.73;101049.67;1790353;80;21038;-58
2021/04/26 11:40:17;;;;;;;2.65;1.30;;;;;;;11.54;58.88;101057.88;1790033;80;21250;-58
2021/04/26 11:42:45;;;;;;;5.85;1.20;;;;;;;11.51;58.96;101065.59;1790331;80;21089;-58
2021/04/26 11:45:14;;;;;;;4.37;1.35;;;;;;;11.45;59.86;101068.02;1790297;80;21156;-58
2021/04/26 11:47:42;;;;;;;1.10;0.90;;;;;;;11.53;59.70;101065.52;1790311;80;21069;-58
2021/04/26 11:50:14;;;;;;;1.75;1.20;;;;;;;11.66;59.53;101061.50;1790438;80;21056;-58
2021/04/26 11:52:39;;;;;;;4.67;1.35;;;;;;;11.70;58.67;101069.86;1790201;80;21601;-59